Time;durP1;ratioP1;P1;durP2;ratioP2;P2;SDS_P1;SDS_P2;PMS_P1;PMS_P2;Temp;Humidity;BMP_temperature;BMP_pressure;BME280_temperature;BME280_humidity;BME280_pressure;Samples;Min_cycle;Max_cycle;Signal;HPM_P1;HPM_P2
2023/01/08 00:01:28;;;;;;;27.95;16.48;;;;;;;3.41;73.46;102070.25;1733137;82;27488;-60
2023/01/08 00:03:55;;;;;;;29.67;18.17;;;;;;;3.39;73.40;102065.45;1733087;81;25920;-59
2023/01/08 00:06:21;;;;;;;32.08;18.20;;;;;;;3.39;73.34;102066.77;1733900;81;25475;-59
2023/01/08 00:08:48;;;;;;;31.33;16.97;;;;;;;3.39;73.36;102064.11;1733230;82;25956;-60
2023/01/08 00:11:15;;;;;;;31.97;17.87;;;;;;;3.40;73.52;102063.67;1714918;82;26193;-59
2023/01/08 00:13:42;;;;;;;34.43;18.70;;;;;;;3.42;73.59;102060.02;1714127;83;27485;-60
2023/01/08 00:16:13;;;;;;;24.10;15.43;;;;;;;3.46;73.50;102059.44;1740590;81;26145;-61
2023/01/08 00:18:40;;;;;;;25.27;15.20;;;;;;;3.35;73.24;102065.17;1733480;82;25835;-60
2023/01/08 00:21:07;;;;;;;24.02;13.90;;;;;;;3.27;73.28;102072.09;1715680;82;26472;-60
2023/01/08 00:23:35;;;;;;;21.73;13.83;;;;;;;3.24;73.34;102076.66;1714192;83;25819;-61
2023/01/08 00:26:05;;;;;;;22.02;13.78;;;;;;;3.24;73.40;102076.66;1737121;81;27476;-61
2023/01/08 00:28:32;;;;;;;17.75;10.98;;;;;;;3.25;73.50;102067.77;1733454;82;25747;-59
2023/01/08 00:31:00;;;;;;;16.37;11.15;;;;;;;3.22;73.35;102073.19;1716428;83;25520;-59
2023/01/08 00:33:27;;;;;;;16.10;10.93;;;;;;;3.05;73.26;102066.70;1728924;81;25978;-59
2023/01/08 00:35:54;;;;;;;17.60;10.43;;;;;;;2.95;73.45;102074.15;1707807;83;26417;-59
2023/01/08 00:38:27;;;;;;;16.17;10.45;;;;;;;2.92;73.70;102067.60;1741550;82;28424;-59
2023/01/08 00:40:54;;;;;;;17.92;11.63;;;;;;;2.87;73.92;102083.30;1748652;82;25974;-60
2023/01/08 00:43:21;;;;;;;18.77;10.80;;;;;;;2.76;73.69;102084.54;1764714;80;25645;-60
2023/01/08 00:45:52;;;;;;;18.77;10.88;;;;;;;2.73;74.02;102078.02;1764082;81;25838;-60
2023/01/08 00:48:17;;;;;;;16.93;10.82;;;;;;;2.72;74.37;102081.59;1764501;80;26406;-60
2023/01/08 00:50:44;;;;;;;17.48;10.43;;;;;;;2.77;74.50;102084.09;1764252;80;27587;-60
2023/01/08 00:53:12;;;;;;;17.73;9.73;;;;;;;2.81;74.70;102081.72;1764068;81;26570;-60
2023/01/08 00:55:38;;;;;;;14.93;10.43;;;;;;;2.85;75.51;102084.70;1748401;81;25749;-60
2023/01/08 00:58:05;;;;;;;18.15;10.28;;;;;;;2.88;75.10;102082.38;1764774;80;25959;-59
2023/01/08 01:00:32;;;;;;;14.10;10.25;;;;;;;2.92;75.12;102082.66;1764426;81;25666;-59
2023/01/08 01:02:59;;;;;;;14.90;10.05;;;;;;;2.97;75.29;102072.28;1764181;81;27462;-59
2023/01/08 01:05:26;;;;;;;19.23;9.93;;;;;;;2.98;75.42;102079.34;1764330;81;25749;-59
2023/01/08 01:07:53;;;;;;;14.10;9.10;;;;;;;2.98;75.56;102075.34;1725299;81;25782;-60
2023/01/08 01:10:19;;;;;;;20.90;9.55;;;;;;;2.97;75.70;102069.63;1683877;85;25852;-59
2023/01/08 01:12:46;;;;;;;15.10;8.98;;;;;;;2.99;75.59;102080.22;1740502;82;25691;-60
2023/01/08 01:15:16;;;;;;;13.53;8.78;;;;;;;3.02;75.65;102080.56;1739445;82;27531;-59
2023/01/08 01:17:45;;;;;;;12.68;8.43;;;;;;;3.02;75.72;102080.56;1739586;82;25721;-59
2023/01/08 01:20:16;;;;;;;10.63;7.78;;;;;;;3.08;76.00;102069.70;1739546;82;25722;-59
2023/01/08 01:22:43;;;;;;;14.43;8.30;;;;;;;3.16;76.14;102069.43;1739608;81;25743;-60
2023/01/08 01:25:10;;;;;;;15.53;9.30;;;;;;;3.24;76.38;102072.67;1739669;82;25765;-59
2023/01/08 01:27:37;;;;;;;13.55;9.13;;;;;;;3.31;76.20;102075.98;1739370;82;27494;-59
2023/01/08 01:30:06;;;;;;;15.63;9.28;;;;;;;3.27;75.69;102067.25;1739273;82;26517;-59
2023/01/08 01:32:34;;;;;;;13.35;9.45;;;;;;;3.30;76.02;102063.13;1739279;82;25738;-59
2023/01/08 01:35:01;;;;;;;13.70;9.25;;;;;;;3.29;75.82;102066.27;1723398;82;25972;-59
2023/01/08 01:37:28;;;;;;;12.20;8.60;;;;;;;3.31;75.67;102068.00;1729257;82;25765;-59
2023/01/08 01:39:56;;;;;;;15.63;10.18;;;;;;;3.32;75.67;102059.95;1736746;82;27489;-59
2023/01/08 01:42:38;;;;;;;14.78;8.93;;;;;;;3.33;75.65;102063.02;1773810;80;25718;-60
2023/01/08 01:45:26;;;;;;;13.10;8.78;;;;;;;3.31;75.15;102057.36;1772073;80;25794;-59
2023/01/08 01:48:04;;;;;;;15.90;9.28;;;;;;;3.21;74.97;102060.36;1774228;80;26660;-60
2023/01/08 01:50:36;;;;;;;13.70;8.98;;;;;;;3.11;74.87;102059.81;1774445;80;25738;-59
2023/01/08 01:53:20;;;;;;;14.78;9.43;;;;;;;3.00;74.90;102055.38;1769540;80;27466;-59
2023/01/08 01:55:49;;;;;;;15.20;9.78;;;;;;;2.92;74.93;102058.74;1768955;81;25782;-59
2023/01/08 01:58:26;;;;;;;15.72;9.18;;;;;;;2.78;74.90;102049.48;1769530;80;25486;-59
2023/01/08 02:00:56;;;;;;;18.42;10.05;;;;;;;2.71;75.22;102049.74;1769972;81;25783;-59
2023/01/08 02:03:27;;;;;;;14.30;9.28;;;;;;;2.62;75.25;102050.48;1769618;81;25828;-59
2023/01/08 02:06:09;;;;;;;14.45;9.80;;;;;;;2.57;75.57;102054.20;1765458;81;27476;-59
2023/01/08 02:09:07;;;;;;;17.48;9.40;;;;;;;2.55;75.62;102048.95;1716966;82;25757;-59
2023/01/08 02:12:17;;;;;;;13.08;8.70;;;;;;;2.54;75.91;102053.00;1767465;80;25743;-59
2023/01/08 02:15:17;;;;;;;16.32;9.63;;;;;;;2.53;76.44;102050.79;1772441;79;25798;-59
2023/01/08 02:18:08;;;;;;;15.15;9.88;;;;;;;2.55;76.42;102050.76;1775932;80;25659;-59
2023/01/08 02:20:53;;;;;;;11.63;8.60;;;;;;;2.48;76.77;102054.93;1776250;80;27463;-59
2023/01/08 02:23:45;;;;;;;11.75;8.28;;;;;;;2.47;76.96;102051.86;1775876;80;25774;-58
2023/01/08 02:26:31;;;;;;;12.80;9.05;;;;;;;2.54;77.13;102056.52;1776219;80;25723;-59
2023/01/08 02:29:10;;;;;;;11.93;8.63;;;;;;;2.57;77.25;102046.23;1772980;80;25861;-59
2023/01/08 02:31:40;;;;;;;13.68;8.88;;;;;;;2.57;77.39;102052.88;1776100;80;25906;-59
2023/01/08 02:34:09;;;;;;;16.82;9.35;;;;;;;2.58;77.45;102054.62;1796959;79;27571;-59
2023/01/08 02:36:45;;;;;;;12.82;8.50;;;;;;;2.60;77.56;102055.44;1810957;79;25750;-60
2023/01/08 02:39:39;;;;;;;12.00;8.05;;;;;;;2.56;77.63;102048.04;1710094;83;25686;-59
2023/01/08 02:42:41;;;;;;;;;;;;;;;2.54;77.72;102043.70;1711946;83;25824;-59
2023/01/08 02:45:17;;;;;;;13.83;9.03;;;;;;;2.54;77.74;102045.89;1743437;82;25702;-59
2023/01/08 02:47:54;;;;;;;13.88;8.68;;;;;;;2.48;77.75;102040.32;1742896;82;27558;-59
2023/01/08 02:50:56;;;;;;;14.63;9.03;;;;;;;2.45;77.88;102036.91;1709282;82;25788;-59
2023/01/08 02:53:28;;;;;;;14.98;8.38;;;;;;;2.40;78.09;102038.39;1736525;81;25768;-59
2023/01/08 02:56:00;;;;;;;13.30;8.43;;;;;;;2.37;78.30;102038.95;1745042;82;25797;-59
2023/01/08 02:58:31;;;;;;;13.00;8.80;;;;;;;2.35;78.41;102035.03;1745805;82;25991;-59
2023/01/08 03:01:02;;;;;;;14.05;8.25;;;;;;;2.33;78.74;102034.21;1745757;82;28148;-59
2023/01/08 03:03:30;;;;;;;11.70;8.35;;;;;;;2.29;78.80;102035.22;1745736;82;25524;-60
2023/01/08 03:06:05;;;;;;;10.93;8.70;;;;;;;2.26;78.83;102035.34;1744672;82;25740;-59
2023/01/08 03:08:39;;;;;;;12.15;8.43;;;;;;;2.27;79.22;102039.73;1758302;81;26667;-59
2023/01/08 03:11:10;;;;;;;10.82;8.03;;;;;;;2.21;79.20;102042.58;1758703;81;26478;-59
2023/01/08 03:13:50;;;;;;;11.30;8.20;;;;;;;2.18;79.42;102040.89;1744474;82;27446;-58
2023/01/08 03:16:44;;;;;;;12.05;8.70;;;;;;;2.16;79.72;102052.02;1745217;82;25772;-58
2023/01/08 03:19:31;;;;;;;16.30;8.57;;;;;;;2.15;79.84;102048.98;1744801;82;25728;-59
2023/01/08 03:22:00;;;;;;;11.57;8.38;;;;;;;2.13;79.77;102049.02;1744985;82;26419;-59
2023/01/08 03:24:31;;;;;;;12.47;7.97;;;;;;;2.13;79.94;102042.84;1745277;82;25760;-59
2023/01/08 03:27:01;;;;;;;14.83;9.25;;;;;;;2.13;79.85;102046.36;1745378;82;27695;-59
2023/01/08 03:29:28;;;;;;;13.53;8.93;;;;;;;2.18;80.26;102047.53;1745249;82;25721;-59
2023/01/08 03:32:00;;;;;;;13.75;9.05;;;;;;;2.24;80.10;102043.34;1745353;82;25684;-59
2023/01/08 03:34:30;;;;;;;11.45;8.75;;;;;;;2.31;80.14;102050.20;1733634;82;25686;-59
2023/01/08 03:37:02;;;;;;;12.98;9.35;;;;;;;2.33;80.00;102049.67;1733076;82;25753;-59
2023/01/08 03:39:37;;;;;;;13.32;8.23;;;;;;;2.28;79.99;102051.63;1772260;80;28315;-59
2023/01/08 03:42:09;;;;;;;13.55;9.53;;;;;;;2.22;79.99;102046.53;1774175;80;25667;-59
2023/01/08 03:44:36;;;;;;;13.65;8.93;;;;;;;2.19;80.20;102056.80;1774264;80;25794;-59
2023/01/08 03:47:04;;;;;;;13.58;9.10;;;;;;;2.20;80.40;102049.69;1774547;80;26028;-59
2023/01/08 03:49:31;;;;;;;14.58;9.20;;;;;;;2.16;80.51;102053.34;1774400;80;25791;-59
2023/01/08 03:51:58;;;;;;;14.45;9.35;;;;;;;2.11;80.67;102056.63;1774526;80;27482;-59
2023/01/08 03:54:32;;;;;;;12.05;9.08;;;;;;;2.10;80.88;102058.86;1787219;80;25711;-59
2023/01/08 03:57:00;;;;;;;17.20;9.45;;;;;;;2.11;81.07;102049.98;1792078;79;25710;-59
2023/01/08 03:59:27;;;;;;;15.05;9.63;;;;;;;2.11;81.03;102044.20;1792334;80;25826;-59
2023/01/08 04:01:54;;;;;;;15.10;10.00;;;;;;;2.16;81.01;102048.03;1792278;80;25725;-59
2023/01/08 04:04:21;;;;;;;17.05;9.28;;;;;;;2.14;81.03;102041.46;1741634;81;27589;-59
2023/01/08 04:06:48;;;;;;;13.35;9.08;;;;;;;2.12;81.27;102039.78;1730963;82;25807;-59
2023/01/08 04:09:14;;;;;;;14.15;9.33;;;;;;;2.08;81.44;102043.00;1740153;81;25704;-59
2023/01/08 04:11:41;;;;;;;12.98;9.03;;;;;;;2.03;81.51;102039.61;1733098;82;25772;-59
2023/01/08 04:14:08;;;;;;;15.43;8.70;;;;;;;2.00;81.81;102040.58;1733260;82;25864;-59
2023/01/08 04:16:35;;;;;;;14.70;9.58;;;;;;;1.98;81.96;102040.23;1733173;82;27472;-59
2023/01/08 04:19:01;;;;;;;13.30;9.25;;;;;;;1.94;82.33;102042.11;1733071;81;25853;-59
2023/01/08 04:21:28;;;;;;;16.97;10.30;;;;;;;1.92;82.45;102038.63;1733269;82;25478;-59
2023/01/08 04:23:55;;;;;;;13.45;9.58;;;;;;;1.89;82.68;102040.05;1732975;82;25750;-59
2023/01/08 04:26:22;;;;;;;14.58;10.20;;;;;;;1.87;82.78;102042.76;1733162;82;26118;-59
2023/01/08 04:28:48;;;;;;;13.28;9.15;;;;;;;1.85;83.00;102040.61;1733288;82;27612;-59
2023/01/08 04:31:15;;;;;;;13.90;9.63;;;;;;;1.87;83.12;102045.41;1733030;82;25835;-59
2023/01/08 04:33:42;;;;;;;15.05;9.25;;;;;;;1.86;83.13;102040.16;1734053;82;25893;-59
2023/01/08 04:36:09;;;;;;;14.87;10.15;;;;;;;1.88;83.14;102041.84;1789422;79;25765;-59
2023/01/08 04:38:36;;;;;;;15.28;9.08;;;;;;;1.88;83.16;102048.95;1761087;80;27285;-59
2023/01/08 04:41:05;;;;;;;15.55;10.32;;;;;;;1.88;83.12;102043.64;1764520;81;27584;-58
2023/01/08 04:43:32;;;;;;;16.17;9.55;;;;;;;1.88;83.27;102042.32;1764211;81;25737;-59
2023/01/08 04:46:01;;;;;;;15.10;9.93;;;;;;;1.87;83.60;102044.56;1764410;80;25781;-59
2023/01/08 04:48:30;;;;;;;15.18;9.78;;;;;;;1.86;83.73;102044.14;1764669;80;26699;-59
2023/01/08 04:50:59;;;;;;;13.88;9.48;;;;;;;1.85;83.97;102040.61;1727213;82;25807;-59
2023/01/08 04:53:28;;;;;;;14.18;9.60;;;;;;;1.86;83.71;102048.13;1764454;80;27396;-59
2023/01/08 04:55:55;;;;;;;15.50;10.30;;;;;;;1.93;83.60;102043.03;1763782;81;26216;-59
2023/01/08 04:58:22;;;;;;;15.75;10.03;;;;;;;1.97;83.65;102046.45;1764359;81;25760;-59
2023/01/08 05:00:49;;;;;;;22.77;10.58;;;;;;;2.02;83.55;102047.16;1763971;81;25964;-59
2023/01/08 05:03:16;;;;;;;16.45;11.18;;;;;;;2.03;83.57;102043.59;1764639;80;25807;-59
2023/01/08 05:05:43;;;;;;;14.75;9.75;;;;;;;2.04;83.39;102040.02;1763075;80;28262;-59
2023/01/08 05:08:09;;;;;;;12.82;8.83;;;;;;;2.01;83.59;102038.34;1745144;82;27276;-59
2023/01/08 05:10:36;;;;;;;13.85;9.18;;;;;;;1.98;83.62;102037.57;1745052;82;25819;-59
2023/01/08 05:13:03;;;;;;;12.85;8.38;;;;;;;1.95;83.75;102040.31;1745335;82;26680;-59
2023/01/08 05:15:30;;;;;;;11.10;8.30;;;;;;;1.97;83.66;102039.81;1745369;82;25746;-59
2023/01/08 05:18:04;;;;;;;12.10;8.48;;;;;;;1.95;83.61;102041.20;1745341;82;28520;-59
2023/01/08 05:20:34;;;;;;;12.47;8.10;;;;;;;1.96;83.58;102046.92;1745159;82;25758;-59
2023/01/08 05:23:02;;;;;;;11.60;8.55;;;;;;;1.99;83.87;102043.30;1745342;82;25703;-59
2023/01/08 05:25:29;;;;;;;10.93;7.85;;;;;;;2.01;83.64;102038.34;1745349;82;25805;-59
2023/01/08 05:27:55;;;;;;;13.18;8.35;;;;;;;1.95;83.67;102034.56;1745741;82;25770;-59
2023/01/08 05:30:22;;;;;;;11.45;7.60;;;;;;;1.93;83.59;102039.52;1745449;82;27463;-59
2023/01/08 05:32:49;;;;;;;11.97;8.05;;;;;;;1.93;83.74;102040.84;1747404;80;25761;-59
2023/01/08 05:35:16;;;;;;;10.35;7.35;;;;;;;1.91;83.49;102049.30;1774469;80;25764;-60
2023/01/08 05:37:44;;;;;;;13.38;8.53;;;;;;;1.91;83.54;102051.96;1770541;80;26481;-59
2023/01/08 05:40:11;;;;;;;18.60;8.40;;;;;;;1.95;83.56;102062.44;1764214;81;25512;-59
2023/01/08 05:42:38;;;;;;;14.18;8.48;;;;;;;1.95;83.44;102065.52;1727733;82;27585;-60
2023/01/08 05:45:07;;;;;;;14.53;8.15;;;;;;;1.94;83.24;102071.75;1727396;82;25653;-59
2023/01/08 05:47:35;;;;;;;11.60;7.55;;;;;;;1.96;83.11;102069.92;1727863;82;25776;-60
2023/01/08 05:50:02;;;;;;;16.70;8.90;;;;;;;1.96;82.92;102075.23;1727370;82;25956;-60
2023/01/08 05:52:29;;;;;;;15.53;9.50;;;;;;;1.96;82.91;102083.19;1727961;83;25542;-59
2023/01/08 05:54:58;;;;;;;18.40;9.65;;;;;;;1.95;82.89;102084.99;1724269;82;27499;-60
2023/01/08 05:57:26;;;;;;;15.32;8.60;;;;;;;1.97;82.81;102085.78;1722719;82;25499;-60
2023/01/08 05:59:52;;;;;;;12.63;8.18;;;;;;;1.99;82.77;102094.58;1722509;82;25702;-60
2023/01/08 06:02:19;;;;;;;13.48;8.45;;;;;;;2.01;82.73;102109.15;1722571;83;25822;-60
2023/01/08 06:04:46;;;;;;;12.10;7.70;;;;;;;1.95;82.79;102100.03;1722638;83;25933;-59
2023/01/08 06:07:13;;;;;;;12.58;7.20;;;;;;;1.92;82.78;102100.14;1733812;82;27533;-60
2023/01/08 06:09:40;;;;;;;15.55;8.43;;;;;;;1.87;82.94;102096.30;1742980;82;25762;-60
2023/01/08 06:12:07;;;;;;;15.00;7.37;;;;;;;1.82;83.12;102100.42;1743136;82;26079;-60
2023/01/08 06:14:34;;;;;;;14.05;7.90;;;;;;;1.85;83.11;102103.44;1736797;82;26422;-60
2023/01/08 06:17:00;;;;;;;12.58;7.15;;;;;;;1.84;83.21;102114.49;1732830;81;25769;-60
2023/01/08 06:19:27;;;;;;;14.68;7.60;;;;;;;1.83;83.36;102113.22;1732660;82;27513;-60
2023/01/08 06:21:54;;;;;;;13.35;7.40;;;;;;;1.83;83.41;102112.78;1732979;81;25719;-60
2023/01/08 06:24:20;;;;;;;13.35;7.53;;;;;;;1.84;83.41;102117.14;1732709;82;25750;-59
2023/01/08 06:26:47;;;;;;;18.62;7.80;;;;;;;1.82;83.57;102107.50;1732731;82;25939;-60
2023/01/08 06:29:14;;;;;;;15.00;7.92;;;;;;;1.79;83.58;102119.08;1732729;82;25728;-60
2023/01/08 06:31:40;;;;;;;13.10;8.30;;;;;;;1.81;83.54;102126.98;1732697;81;28557;-60
2023/01/08 06:34:07;;;;;;;15.75;8.70;;;;;;;1.82;83.61;102127.40;1751524;81;25505;-60
2023/01/08 06:36:34;;;;;;;13.28;8.93;;;;;;;1.80;83.62;102125.24;1764254;80;25433;-60
2023/01/08 06:39:04;;;;;;;14.47;8.93;;;;;;;1.75;83.52;102122.73;1715179;83;25920;-59
2023/01/08 06:41:32;;;;;;;21.15;10.78;;;;;;;1.78;83.57;102119.14;1726904;82;25734;-59
2023/01/08 06:43:59;;;;;;;15.50;8.85;;;;;;;1.81;83.39;102125.66;1749024;81;27511;-59
2023/01/08 06:46:26;;;;;;;14.83;7.90;;;;;;;1.80;83.28;102118.61;1716957;83;25967;-59
2023/01/08 06:48:53;;;;;;;16.77;9.18;;;;;;;1.74;83.15;102117.04;1729959;82;25736;-59
2023/01/08 06:51:20;;;;;;;15.88;9.03;;;;;;;1.76;83.10;102116.98;1736862;82;25742;-60
2023/01/08 06:53:49;;;;;;;13.30;7.90;;;;;;;1.76;83.07;102115.19;1733772;82;25771;-60
2023/01/08 06:56:16;;;;;;;12.75;7.85;;;;;;;1.67;83.17;102121.66;1746089;82;27639;-60
2023/01/08 06:58:43;;;;;;;13.53;7.70;;;;;;;1.62;83.35;102126.20;1745994;82;25745;-59
2023/01/08 07:01:15;;;;;;;13.93;7.67;;;;;;;1.64;83.23;102117.75;1746206;82;25771;-60
2023/01/08 07:03:43;;;;;;;11.40;7.72;;;;;;;1.66;83.14;102120.38;1746534;82;26423;-60
2023/01/08 07:06:16;;;;;;;14.23;8.30;;;;;;;1.64;83.08;102122.20;1743732;82;25947;-60
2023/01/08 07:08:44;;;;;;;15.15;8.05;;;;;;;1.60;83.08;102123.19;1735134;82;27534;-60
2023/01/08 07:11:12;;;;;;;11.10;7.15;;;;;;;1.55;83.06;102118.02;1734556;82;25762;-59
2023/01/08 07:13:38;;;;;;;9.85;7.08;;;;;;;1.52;83.07;102118.98;1735099;82;25751;-60
2023/01/08 07:16:11;;;;;;;10.70;7.42;;;;;;;1.51;83.09;102121.69;1734843;82;25780;-60
2023/01/08 07:18:39;;;;;;;13.83;7.55;;;;;;;1.46;83.05;102128.45;1735155;82;25477;-60
2023/01/08 07:21:07;;;;;;;12.35;7.10;;;;;;;1.49;83.04;102136.77;1734714;82;27472;-60
2023/01/08 07:23:34;;;;;;;12.37;7.72;;;;;;;1.53;82.98;102137.08;1734852;82;25955;-60
2023/01/08 07:26:07;;;;;;;11.93;7.03;;;;;;;1.56;82.55;102125.06;1734683;82;25740;-60
2023/01/08 07:28:34;;;;;;;11.22;7.03;;;;;;;1.50;82.59;102127.91;1734928;82;25920;-60
2023/01/08 07:31:05;;;;;;;13.95;7.83;;;;;;;1.48;82.37;102130.58;1734641;82;25809;-60
2023/01/08 07:33:33;;;;;;;13.08;7.75;;;;;;;1.51;82.37;102135.80;1727491;82;28302;-59
2023/01/08 07:36:00;;;;;;;10.98;7.15;;;;;;;1.49;82.32;102141.60;1769173;81;25721;-60
2023/01/08 07:38:28;;;;;;;12.05;6.83;;;;;;;1.52;82.27;102132.25;1744105;81;25720;-60
2023/01/08 07:40:57;;;;;;;12.70;8.33;;;;;;;1.49;82.49;102134.97;1743705;81;26721;-60
2023/01/08 07:43:25;;;;;;;11.25;7.85;;;;;;;1.49;82.46;102137.63;1774608;80;25770;-59
2023/01/08 07:45:52;;;;;;;11.88;7.20;;;;;;;1.51;82.15;102132.30;1774442;80;27508;-59
2023/01/08 07:48:18;;;;;;;12.33;7.97;;;;;;;1.45;82.00;102132.02;1774318;80;25773;-60
2023/01/08 07:50:45;;;;;;;10.53;7.17;;;;;;;1.44;82.12;102127.62;1743821;81;25770;-60
2023/01/08 07:53:15;;;;;;;10.75;7.10;;;;;;;1.42;81.84;102136.54;1774214;80;26438;-59
2023/01/08 07:55:42;;;;;;;8.85;5.72;;;;;;;1.46;81.82;102136.84;1774339;80;25645;-59
2023/01/08 07:58:12;;;;;;;12.60;8.18;;;;;;;1.49;81.52;102134.97;1774119;80;28521;-59
2023/01/08 08:00:39;;;;;;;14.98;8.25;;;;;;;1.50;81.43;102132.73;1773823;80;25783;-59
2023/01/08 08:03:13;;;;;;;11.80;7.12;;;;;;;1.52;81.44;102135.37;1774477;80;25713;-59
2023/01/08 08:05:38;;;;;;;20.27;7.20;;;;;;;1.55;81.27;102141.89;1774041;80;25777;-59
2023/01/08 08:08:10;;;;;;;11.88;7.22;;;;;;;1.62;81.29;102134.16;1745693;82;25738;-60
2023/01/08 08:10:38;;;;;;;14.28;6.70;;;;;;;1.66;81.00;102127.87;1742917;82;27430;-59
2023/01/08 08:13:05;;;;;;;10.20;7.12;;;;;;;1.63;80.34;102128.41;1741143;82;25795;-60
2023/01/08 08:15:34;;;;;;;11.43;7.85;;;;;;;1.55;80.32;102134.82;1715848;83;25709;-59
2023/01/08 08:18:00;;;;;;;14.50;7.47;;;;;;;1.49;80.45;102140.75;1746120;82;25814;-58
2023/01/08 08:20:27;;;;;;;12.70;7.65;;;;;;;1.48;80.43;102140.33;1746012;81;25853;-60
2023/01/08 08:23:09;;;;;;;13.68;8.50;;;;;;;1.46;80.40;102141.71;1746129;82;27670;-61
2023/01/08 08:25:36;;;;;;;12.13;7.78;;;;;;;1.48;80.50;102141.19;1746008;81;25749;-61
2023/01/08 08:28:04;;;;;;;14.53;9.65;;;;;;;1.45;80.36;102145.71;1745940;81;25955;-60
2023/01/08 08:30:33;;;;;;;15.90;9.18;;;;;;;1.41;80.18;102140.95;1746509;81;25833;-60
2023/01/08 08:33:04;;;;;;;12.25;8.73;;;;;;;1.40;80.29;102149.38;1745115;80;25743;-58
2023/01/08 08:35:33;;;;;;;13.75;8.68;;;;;;;1.40;80.27;102146.73;1679678;85;28208;-58
2023/01/08 08:38:00;;;;;;;13.62;8.03;;;;;;;1.37;80.17;102144.15;1744297;80;25735;-61
2023/01/08 08:40:27;;;;;;;11.60;7.75;;;;;;;1.35;80.12;102145.11;1722817;82;25721;-60
2023/01/08 08:43:01;;;;;;;12.82;7.55;;;;;;;1.38;80.15;102145.89;1722596;82;27960;-60
2023/01/08 08:45:28;;;;;;;;;;;;;;;1.42;79.73;102140.52;1725042;83;25701;-61
2023/01/08 08:47:55;;;;;;;15.30;8.73;;;;;;;1.46;79.70;102143.04;1691832;84;27512;-61
2023/01/08 08:50:23;;;;;;;11.50;7.53;;;;;;;1.43;79.66;102146.23;1702669;83;25804;-61
2023/01/08 08:52:49;;;;;;;11.97;7.55;;;;;;;1.47;79.68;102139.91;1702114;83;25723;-61
2023/01/08 08:55:17;;;;;;;11.35;7.17;;;;;;;1.40;79.40;102133.47;1702521;83;27977;-60
2023/01/08 08:57:46;;;;;;;13.75;7.92;;;;;;;1.35;79.38;102127.88;1704410;84;25771;-61
2023/01/08 09:00:15;;;;;;;15.15;7.70;;;;;;;1.36;79.39;102129.63;1703867;83;27462;-59
2023/01/08 09:02:42;;;;;;;11.83;7.33;;;;;;;1.37;79.13;102129.57;1704457;84;25795;-59
2023/01/08 09:05:10;;;;;;;16.73;7.97;;;;;;;1.38;79.11;102126.01;1704056;84;25756;-59
2023/01/08 09:07:37;;;;;;;15.08;7.35;;;;;;;1.40;79.12;102130.81;1725040;82;25840;-60
2023/01/08 09:10:06;;;;;;;13.95;7.58;;;;;;;1.41;79.02;102129.02;1729562;82;25719;-60
2023/01/08 09:12:33;;;;;;;13.68;6.87;;;;;;;1.42;79.01;102121.48;1729873;82;27536;-59
2023/01/08 09:15:00;;;;;;;13.60;7.22;;;;;;;1.46;78.85;102126.23;1729386;82;25806;-59
2023/01/08 09:17:26;;;;;;;14.18;8.20;;;;;;;1.46;78.74;102119.61;1729962;82;25494;-60
2023/01/08 09:19:53;;;;;;;12.82;7.75;;;;;;;1.46;78.72;102120.94;1729502;82;26485;-60
2023/01/08 09:22:20;;;;;;;10.88;7.05;;;;;;;1.47;78.46;102124.00;1729857;82;25787;-59
2023/01/08 09:24:47;;;;;;;12.33;7.53;;;;;;;1.39;78.40;102112.31;1729376;82;28288;-60
2023/01/08 09:27:15;;;;;;;15.05;8.30;;;;;;;1.36;78.50;102107.08;1729604;82;25735;-60
2023/01/08 09:29:41;;;;;;;13.48;7.97;;;;;;;1.33;78.36;102105.39;1730699;82;25741;-60
2023/01/08 09:32:09;;;;;;;16.60;8.35;;;;;;;1.29;78.18;102104.20;1729464;82;25788;-60
2023/01/08 09:34:37;;;;;;;20.68;8.58;;;;;;;1.21;78.25;102103.94;1744112;82;25933;-59
2023/01/08 09:37:04;;;;;;;13.53;8.65;;;;;;;1.15;78.28;102102.79;1741224;82;27463;-60
2023/01/08 09:39:32;;;;;;;13.28;7.70;;;;;;;1.08;78.39;102099.43;1704049;84;25716;-60
2023/01/08 09:42:05;;;;;;;13.30;8.03;;;;;;;1.03;78.73;102103.14;1714816;83;25766;-60
2023/01/08 09:44:36;;;;;;;17.35;8.75;;;;;;;1.01;78.54;102095.21;1714440;83;25810;-60
2023/01/08 09:47:06;;;;;;;12.90;7.85;;;;;;;0.98;78.79;102084.72;1714557;83;26161;-60
2023/01/08 09:49:43;;;;;;;15.35;8.40;;;;;;;0.94;78.71;102087.02;1703728;84;28563;-60
2023/01/08 09:52:12;;;;;;;15.60;9.30;;;;;;;0.92;78.86;102087.08;1714300;83;25505;-59
2023/01/08 09:54:40;;;;;;;14.35;8.28;;;;;;;0.96;79.01;102086.97;1714248;83;25803;-59
2023/01/08 09:57:15;;;;;;;14.00;8.30;;;;;;;1.01;78.59;102081.11;1736337;81;25790;-59
2023/01/08 09:59:43;;;;;;;13.38;7.62;;;;;;;1.01;78.56;102078.45;1739211;81;25825;-59
2023/01/08 10:02:17;;;;;;;22.42;8.28;;;;;;;0.96;78.56;102085.20;1759414;80;26900;-59
2023/01/08 10:04:47;;;;;;;16.20;8.98;;;;;;;0.98;78.50;102075.88;1755875;81;25884;-59
2023/01/08 10:07:20;;;;;;;13.40;8.08;;;;;;;0.99;78.34;102073.65;1723184;81;25486;-59
2023/01/08 10:09:49;;;;;;;13.83;8.68;;;;;;;0.94;78.45;102071.98;1705877;84;26371;-60
2023/01/08 10:12:25;;;;;;;20.02;9.73;;;;;;;0.93;78.35;102067.63;1705667;82;25837;-59
2023/01/08 10:14:56;;;;;;;19.40;8.53;;;;;;;0.91;78.65;102068.11;1705812;84;27398;-59
2023/01/08 10:17:34;;;;;;;15.30;8.80;;;;;;;0.89;78.42;102062.45;1705629;84;25476;-60
2023/01/08 10:20:02;;;;;;;19.62;9.40;;;;;;;0.81;78.78;102072.38;1705300;84;25846;-60
2023/01/08 10:22:32;;;;;;;19.57;10.68;;;;;;;0.74;78.94;102080.94;1705721;83;26482;-60
2023/01/08 10:25:11;;;;;;;18.20;9.80;;;;;;;0.70;79.01;102077.50;1705667;84;25775;-60
2023/01/08 10:30:06;;;;;;;13.90;9.20;;;;;;;0.86;78.56;102073.36;105041;1282;635779;-61
2023/01/08 10:32:36;;;;;;;17.80;9.10;;;;;;;0.71;78.79;102073.95;106631;1267;95807;-59
2023/01/08 10:35:15;;;;;;;20.50;10.00;;;;;;;0.64;78.86;102070.06;106650;1267;95828;-59
2023/01/08 10:37:49;;;;;;;19.90;10.20;;;;;;;0.57;79.25;102064.23;106635;1270;107832;-60
2023/01/08 10:40:23;;;;;;;;;;;;;;;0.50;79.46;102065.48;106686;1266;110054;-59
2023/01/08 10:42:53;;;;;;;18.50;9.70;;;;;;;0.36;79.86;102067.08;106191;1269;758023;-59
2023/01/08 10:45:24;;;;;;;21.80;9.50;;;;;;;0.30;80.08;102063.15;107296;1257;95855;-60
2023/01/08 10:48:00;;;;;;;15.50;9.60;;;;;;;0.24;80.36;102063.13;107332;1257;95902;-61
2023/01/08 10:50:32;;;;;;;26.60;11.80;;;;;;;0.17;80.59;102060.83;107285;1257;107857;-59
2023/01/08 10:53:03;;;;;;;20.40;9.70;;;;;;;0.09;80.76;102061.90;107243;1259;108991;-59
2023/01/08 10:55:36;;;;;;;20.20;9.10;;;;;;;0.07;80.91;102059.65;107248;1257;107230;-60
2023/01/08 10:58:07;;;;;;;23.80;11.60;;;;;;;0.03;81.20;102059.04;107218;1262;95803;-60
2023/01/08 11:00:37;;;;;;;19.10;9.80;;;;;;;-0.02;81.25;102057.56;107190;1256;95813;-60
2023/01/08 11:03:07;;;;;;;21.10;10.20;;;;;;;-0.01;81.26;102057.55;107178;1257;109446;-60
2023/01/08 11:05:41;;;;;;;18.80;9.30;;;;;;;-0.03;81.46;102053.17;107306;1262;110155;-60
2023/01/08 11:08:20;;;;;;;22.80;11.40;;;;;;;-0.01;81.56;102045.36;107168;1257;108497;-60
2023/01/08 11:10:55;;;;;;;20.60;10.30;;;;;;;0.02;81.57;102043.73;107107;1262;95988;-59
2023/01/08 11:13:24;;;;;;;;;;;;;;;-0.00;81.62;102044.83;107159;1257;95848;-60
2023/01/08 11:16:11;;;;;;;23.80;11.30;;;;;;;-0.03;81.68;102044.00;107159;1258;108977;-59
2023/01/08 11:18:47;;;;;;;22.00;10.80;;;;;;;-0.03;81.78;102051.77;107203;1260;109741;-59
2023/01/08 11:21:31;;;;;;;24.70;12.30;;;;;;;-0.04;81.87;102050.02;107146;1262;107814;-59
2023/01/08 11:24:04;;;;;;;20.50;11.80;;;;;;;-0.08;81.94;102048.36;107170;1258;95793;-60
2023/01/08 11:26:35;;;;;;;16.60;9.40;;;;;;;-0.09;81.99;102049.96;107134;1258;95697;-61
2023/01/08 11:29:12;;;;;;;19.10;10.10;;;;;;;-0.12;81.94;102053.05;107169;1258;108269;-60
2023/01/08 11:31:54;;;;;;;17.40;10.10;;;;;;;-0.15;81.95;102051.00;107171;1262;109688;-60
2023/01/08 11:34:42;;;;;;;21.10;10.60;;;;;;;-0.14;81.98;102044.11;107227;1258;108722;-60
2023/01/08 11:37:19;;;;;;;24.20;10.60;;;;;;;-0.19;82.00;102052.31;107220;1257;95790;-60
2023/01/08 11:39:48;;;;;;;17.50;10.00;;;;;;;-0.20;82.34;102050.22;107245;1258;95771;-60